Time;durP1;ratioP1;P1;durP2;ratioP2;P2;SDS_P1;SDS_P2;PMS_P1;PMS_P2;Temp;Humidity;BMP_temperature;BMP_pressure;BME280_temperature;BME280_humidity;BME280_pressure;Samples;Min_cycle;Max_cycle;Signal;HPM_P1;HPM_P2
2022/01/24 00:01:39;;;;;;;;;;;;;;;-0.14;93.22;101555.34;5011721;28;19921;-77
2022/01/24 00:04:05;;;;;;;;;;;;;;;-0.14;93.41;101558.09;5011282;28;19917;-76
2022/01/24 00:06:32;;;;;;;;;;;;;;;-0.14;92.27;101566.28;5012254;28;20354;-77
2022/01/24 00:08:58;;;;;;;;;;;;;;;-0.17;92.86;101556.03;5011778;28;20007;-77
2022/01/24 00:11:29;;;;;;;;;;;;;;;-0.17;93.73;101564.22;5011801;28;20012;-77
2022/01/24 00:27:09;;;;;;;;;;;;;;;-0.18;94.27;101592.59;4994119;28;20004;-77
2022/01/24 00:29:34;;;;;;;;;;;;;;;-0.13;95.66;101584.25;5011635;28;20544;-77
2022/01/24 00:31:59;;;;;;;;;;;;;;;-0.15;95.22;101594.66;5010641;28;19917;-76
2022/01/24 00:34:25;;;;;;;;;;;;;;;-0.18;95.47;101587.16;5011488;28;20353;-76
2022/01/24 00:36:51;;;;;;;;;;;;;;;-0.15;95.93;101586.47;5011997;28;19913;-77
2022/01/24 00:39:17;;;;;;;;;;;;;;;-0.19;94.95;101595.63;5011488;28;19924;-77
2022/01/24 00:44:41;;;;;;;;;;;;;;;-0.20;94.69;101586.66;5010823;28;20004;-77
2022/01/24 00:47:29;;;;;;;;;;;;;;;-0.20;94.11;101589.38;5011451;28;20367;-77
2022/01/24 00:55:24;;;;;;;;;;;;;;;-0.16;94.80;101592.28;4996759;28;20004;-76
2022/01/24 00:57:50;;;;;;;;;;;;;;;-0.13;94.84;101597.88;4993821;28;19917;-77
2022/01/24 01:00:15;;;;;;;;;;;;;;;-0.14;95.67;101593.53;5011043;28;19924;-77
2022/01/24 01:02:41;;;;;;;;;;;;;;;-0.18;95.22;101584.41;4994742;28;19920;-76
2022/01/24 01:18:29;;;;;;;;;;;;;;;-0.22;96.64;101596.31;5015250;28;19971;-77
2022/01/24 01:23:26;;;;;;;;;;;;;;;-0.27;95.93;101594.56;4998245;28;19971;-76
2022/01/24 01:25:53;;;;;;;;;;;;;;;-0.32;93.85;101602.13;5015452;28;20379;-77
2022/01/24 01:28:20;;;;;;;;;;;;;;;-0.33;94.28;101587.69;5014480;28;19932;-77
2022/01/24 01:30:49;;;;;;;;;;;;;;;-0.35;92.78;101603.56;5014241;28;19960;-76
2022/01/24 01:33:29;;;;;;;;;;;;;;;-0.35;93.89;101602.75;4997859;28;19928;-77
2022/01/24 01:36:07;;;;;;;;;;;;;;;-0.39;91.08;101613.50;4995915;28;19917;-76
2022/01/24 01:52:56;;;;;;;;;;;;;;;-0.55;87.82;101620.59;5014060;28;19917;-77
2022/01/24 01:55:40;;;;;;;;;;;;;;;-0.60;87.54;101623.50;5008717;28;20022;-75
2022/01/24 01:58:06;;;;;;;;;;;;;;;-0.62;87.53;101621.09;5011828;28;19984;-76
2022/01/24 02:00:32;;;;;;;;;;;;;;;-0.66;87.42;101630.25;4997299;28;20020;-76
2022/01/24 02:02:57;;;;;;;;;;;;;;;-0.65;89.44;101631.84;4996771;28;20000;-76
2022/01/24 02:05:23;;;;;;;;;;;;;;;-0.63;88.80;101624.94;5014047;28;19923;-76
2022/01/24 02:07:49;;;;;;;;;;;;;;;-0.69;88.35;101636.34;5014582;28;19917;-75
2022/01/24 02:10:15;;;;;;;;;;;;;;;-0.72;87.87;101631.53;4997122;28;20437;-76
2022/01/24 02:12:41;;;;;;;;;;;;;;;-0.75;88.24;101637.63;4995828;28;19919;-77
2022/01/24 02:15:06;;;;;;;;;;;;;;;-0.77;87.76;101629.00;5013703;28;20015;-76
2022/01/24 02:20:38;;;;;;;;;;;;;;;-0.85;86.14;101640.69;5014157;28;20327;-76
2022/01/24 02:23:13;;;;;;;;;;;;;;;-0.97;86.06;101633.94;5013129;28;20341;-76
2022/01/24 02:25:35;;;;;;;;;;;;;;;-1.03;85.54;101632.50;5013952;28;19979;-75
2022/01/24 02:28:03;;;;;;;;;;;;;;;-1.02;87.11;101634.13;4996607;28;20354;-75
2022/01/24 02:33:00;;;;;;;;;;;;;;;-1.04;85.67;101638.28;4997182;28;19961;-75
2022/01/24 02:35:25;;;;;;;;;;;;;;;-1.15;85.18;101635.06;5014005;28;19968;-75
2022/01/24 02:37:50;;;;;;;;;;;;;;;-1.14;85.48;101642.13;5014335;28;19918;-75
2022/01/24 02:40:19;;;;;;;;;;;;;;;-1.16;86.81;101633.47;5013572;28;19913;-76
2022/01/24 02:48:25;;;;;;;;;;;;;;;-1.37;85.01;101632.47;5013246;28;20330;-76
2022/01/24 02:53:35;;;;;;;;;;;;;;;-1.40;86.92;101635.84;5013645;28;19940;-76
2022/01/24 02:56:01;;;;;;;;;;;;;;;-1.44;86.50;101637.59;5013938;28;20374;-76
2022/01/24 02:58:27;;;;;;;;;;;;;;;-1.47;85.97;101638.22;5012842;28;19924;-76
2022/01/24 03:00:52;;;;;;;;;;;;;;;-1.47;86.55;101644.47;5013677;28;19918;-75
2022/01/24 03:03:18;;;;;;;;;;;;;;;-1.45;86.90;101644.94;5013053;28;19917;-75
2022/01/24 03:05:43;;;;;;;;;;;;;;;-1.47;88.03;101654.56;4996392;28;19921;-76
2022/01/24 03:08:08;;;;;;;;;;;;;;;-1.49;86.19;101656.78;5011997;28;20381;-75
2022/01/24 03:10:38;;;;;;;;;;;;;;;-1.47;86.37;101649.94;5013658;28;19948;-75
2022/01/24 03:15:37;;;;;;;;;;;;;;;-1.50;84.58;101649.75;5013814;28;19917;-76
2022/01/24 03:18:03;;;;;;;;;;;;;;;-1.52;84.07;101649.25;5012936;28;19913;-75
2022/01/24 03:20:28;;;;;;;;;;;;;;;-1.53;84.71;101661.25;4992591;28;19992;-75
2022/01/24 03:22:54;;;;;;;;;;;;;;;-1.58;84.70;101654.06;4997394;28;19933;-75
2022/01/24 03:25:19;;;;;;;;;;;;;;;-1.61;84.40;101646.50;5012990;28;19921;-75
2022/01/24 03:27:44;;;;;;;;;;;;;;;-1.65;84.73;101659.16;5012832;28;20068;-75
2022/01/24 03:30:10;;;;;;;;;;;;;;;-1.66;84.84;101654.03;4995683;28;20337;-76
2022/01/24 03:32:35;;;;;;;;;;;;;;;-1.63;85.00;101656.13;5013602;28;20438;-75
2022/01/24 03:35:01;;;;;;;;;;;;;;;-1.64;86.00;101662.66;4998330;28;19982;-76
2022/01/24 03:37:26;;;;;;;;;;;;;;;-1.60;86.65;101666.38;5012516;28;19918;-76
2022/01/24 03:39:52;;;;;;;;;;;;;;;-1.63;84.04;101667.00;5013309;28;19920;-75
2022/01/24 03:42:17;;;;;;;;;;;;;;;-1.64;85.09;101660.75;5018792;28;19918;-76
2022/01/24 03:44:45;;;;;;;;;;;;;;;-1.68;83.60;101658.97;4995483;28;19924;-75
2022/01/24 03:47:30;;;;;;;;;;;;;;;-1.71;85.57;101665.06;5012521;28;20066;-76
2022/01/24 03:49:56;;;;;;;;;;;;;;;-1.76;85.69;101667.91;5013224;28;19923;-76
2022/01/24 03:52:21;;;;;;;;;;;;;;;-1.70;86.24;101674.81;5015578;28;19916;-76
2022/01/24 03:54:47;;;;;;;;;;;;;;;-1.72;84.68;101675.13;5032747;28;19923;-77
2022/01/24 03:57:13;;;;;;;;;;;;;;;-1.71;84.57;101676.75;5020973;28;19918;-76
2022/01/24 03:59:39;;;;;;;;;;;;;;;-1.77;82.69;101667.09;5027610;28;19943;-77
2022/01/24 04:02:04;;;;;;;;;;;;;;;-1.78;83.18;101670.16;4998938;28;19917;-76
2022/01/24 04:04:30;;;;;;;;;;;;;;;-1.80;83.54;101664.22;4993151;28;20329;-76
2022/01/24 04:06:55;;;;;;;;;;;;;;;-1.82;84.21;101667.28;5007625;28;19913;-77
2022/01/24 04:09:21;;;;;;;;;;;;;;;-1.81;83.68;101670.75;5012256;28;20354;-76
2022/01/24 04:11:50;;;;;;;;;;;;;;;-1.79;84.13;101673.97;5012625;28;19913;-76
2022/01/24 04:16:53;;;;;;;;;;;;;;;-1.83;84.52;101678.44;5017153;28;19953;-76
2022/01/24 04:22:03;;;;;;;;;;;;;;;-1.85;84.04;101680.66;5012293;28;20342;-76
2022/01/24 04:24:29;;;;;;;;;;;;;;;-1.89;85.59;101686.75;5012197;28;19971;-77
2022/01/24 04:26:54;;;;;;;;;;;;;;;-1.90;84.30;101689.78;5012338;28;19949;-77
2022/01/24 04:29:20;;;;;;;;;;;;;;;-1.90;85.57;101682.41;5011562;28;19976;-77
2022/01/24 04:31:45;;;;;;;;;;;;;;;-1.90;84.90;101685.13;5012425;28;19917;-77
2022/01/24 04:34:10;;;;;;;;;;;;;;;-1.92;85.53;101687.38;4994948;28;19992;-76
2022/01/24 04:36:36;;;;;;;;;;;;;;;-1.86;86.88;101679.88;5011372;28;20387;-77
2022/01/24 04:39:02;;;;;;;;;;;;;;;-1.83;87.69;101679.25;5009707;28;19917;-76
2022/01/24 04:41:35;;;;;;;;;;;;;;;-1.83;87.31;101689.31;5011441;28;19917;-76
2022/01/24 04:44:11;;;;;;;;;;;;;;;-1.83;86.29;101695.56;5012188;28;19940;-89
2022/01/24 04:46:59;;;;;;;;;;;;;;;-1.90;84.02;101700.66;5011429;28;20055;-88
2022/01/24 04:52:26;;;;;;;;;;;;;;;-1.97;84.71;101700.28;5028472;28;19917;-89
2022/01/24 04:54:52;;;;;;;;;;;;;;;-1.97;85.70;101703.81;5032242;28;20278;-89
2022/01/24 04:57:19;;;;;;;;;;;;;;;-1.98;83.96;101709.59;5012352;28;19913;-88
2022/01/24 04:59:47;;;;;;;;;;;;;;;-1.99;84.44;101714.22;5012119;28;19917;-89
2022/01/24 05:02:13;;;;;;;;;;;;;;;-1.95;85.48;101715.19;5010217;28;19917;-89
2022/01/24 05:04:38;;;;;;;;;;;;;;;-1.95;85.68;101709.75;5032048;28;19917;-89
2022/01/24 05:07:04;;;;;;;;;;;;;;;-1.95;86.23;101707.03;5021407;28;20029;-89
2022/01/24 05:09:34;;;;;;;;;;;;;;;-1.98;85.87;101713.09;5001993;28;19906;-89
2022/01/24 05:12:07;;;;;;;;;;;;;;;-2.02;86.23;101712.09;5034866;28;19928;-89
2022/01/24 05:25:28;;;;;;;;;;;;;;;-2.00;84.81;101717.25;5029781;28;19921;-77
2022/01/24 05:27:53;;;;;;;;;;;;;;;-1.96;84.50;101729.91;5011428;28;20381;-76
2022/01/24 05:30:18;;;;;;;;;;;;;;;-1.97;82.80;101731.00;5011595;28;20631;-77
2022/01/24 05:32:44;;;;;;;;;;;;;;;-2.02;81.62;101725.69;5016080;28;19921;-77
2022/01/24 05:35:09;;;;;;;;;;;;;;;-2.06;82.81;101730.16;5011752;28;19917;-77
2022/01/24 05:37:35;;;;;;;;;;;;;;;-2.03;82.10;101740.44;5010216;28;20294;-76
2022/01/24 05:40:00;;;;;;;;;;;;;;;-2.02;82.58;101736.56;5010568;28;19922;-77
2022/01/24 05:42:26;;;;;;;;;;;;;;;-2.03;82.68;101747.78;4990240;28;20564;-77
2022/01/24 05:44:52;;;;;;;;;;;;;;;-2.07;80.55;101750.31;5009490;28;20274;-77
2022/01/24 05:47:18;;;;;;;;;;;;;;;-2.10;79.52;101756.38;5010806;28;19925;-76
2022/01/24 05:49:43;;;;;;;;;;;;;;;-2.15;79.66;101753.78;4993810;28;20016;-77
2022/01/24 05:52:09;;;;;;;;;;;;;;;-2.14;80.93;101752.66;5011444;28;19917;-77
2022/01/24 05:54:36;;;;;;;;;;;;;;;-2.11;83.75;101754.78;4984388;28;19921;-76
2022/01/24 05:57:02;;;;;;;;;;;;;;;-2.08;81.78;101753.34;4989244;28;20367;-77
2022/01/24 05:59:27;;;;;;;;;;;;;;;-2.07;83.15;101758.47;5014386;28;20013;-77
2022/01/24 06:01:52;;;;;;;;;;;;;;;-2.12;80.99;101753.16;5014750;28;19956;-77
2022/01/24 06:04:19;;;;;;;;;;;;;;;-2.24;81.08;101752.91;5014463;28;19976;-77
2022/01/24 06:06:44;;;;;;;;;;;;;;;-2.19;81.48;101774.56;5013557;28;20279;-77
2022/01/24 06:09:09;;;;;;;;;;;;;;;-2.18;81.06;101767.19;5014319;28;19923;-76
2022/01/24 06:11:35;;;;;;;;;;;;;;;-2.20;80.75;101769.41;5014281;28;19918;-77
2022/01/24 06:14:02;;;;;;;;;;;;;;;-2.16;82.37;101771.22;5014122;28;19917;-76
2022/01/24 06:16:27;;;;;;;;;;;;;;;-2.13;82.45;101784.19;5014034;28;19917;-76
2022/01/24 06:18:53;;;;;;;;;;;;;;;-2.23;81.81;101781.72;5013274;28;19921;-76
2022/01/24 06:21:18;;;;;;;;;;;;;;;-2.26;79.94;101768.72;5012791;28;19917;-77
2022/01/24 06:23:43;;;;;;;;;;;;;;;-2.29;80.15;101779.41;5012520;28;20049;-78
2022/01/24 06:26:10;;;;;;;;;;;;;;;-2.34;78.30;101788.47;4992038;28;19963;-77
2022/01/24 06:28:36;;;;;;;;;;;;;;;-2.40;76.89;101795.16;5012447;28;19948;-77
2022/01/24 06:31:01;;;;;;;;;;;;;;;-2.42;78.19;101791.94;5012767;28;19984;-77
2022/01/24 06:33:26;;;;;;;;;;;;;;;-2.41;78.86;101799.78;5012464;28;20333;-77
2022/01/24 06:35:52;;;;;;;;;;;;;;;-2.41;79.66;101804.41;5010601;28;20390;-77
2022/01/24 06:38:17;;;;;;;;;;;;;;;-2.34;82.29;101802.06;5012735;28;19914;-87
2022/01/24 06:40:42;;;;;;;;;;;;;;;-2.33;80.85;101806.41;5014134;28;19922;-87
2022/01/24 06:43:08;;;;;;;;;;;;;;;-2.38;79.02;101812.75;5015770;28;20000;-88
2022/01/24 06:45:35;;;;;;;;;;;;;;;-2.38;77.91;101815.47;5014680;28;19940;-87
2022/01/24 06:48:01;;;;;;;;;;;;;;;-2.41;75.19;101820.72;5008412;28;20379;-85
2022/01/24 06:50:26;;;;;;;;;;;;;;;-2.38;76.32;101830.97;4995662;28;19917;-87
2022/01/24 06:52:52;;;;;;;;;;;;;;;-2.33;75.71;101836.31;5021122;28;20326;-87
2022/01/24 06:55:17;;;;;;;;;;;;;;;-2.32;74.60;101845.25;5015043;28;20342;-87
2022/01/24 06:57:42;;;;;;;;;;;;;;;-2.26;75.00;101847.56;5014053;28;19927;-86
2022/01/24 07:00:08;;;;;;;;;;;;;;;-2.19;74.39;101842.50;5009606;28;19932;-87
2022/01/24 07:02:33;;;;;;;;;;;;;;;-2.21;73.87;101855.59;5012582;28;19924;-87
2022/01/24 07:04:59;;;;;;;;;;;;;;;-2.24;74.03;101861.66;4991603;28;19921;-87
2022/01/24 07:07:24;;;;;;;;;;;;;;;-2.28;73.51;101863.38;5009881;28;19996;-87
2022/01/24 07:09:50;;;;;;;;;;;;;;;-2.35;71.92;101863.00;5014775;28;19963;-87
2022/01/24 07:12:15;;;;;;;;;;;;;;;-2.41;71.75;101864.22;5008881;28;19925;-87
2022/01/24 07:14:42;;;;;;;;;;;;;;;-2.39;73.17;101867.44;4988912;28;20375;-87
2022/01/24 07:19:42;;;;;;;;;;;;;;;-2.25;71.07;101868.19;5009841;28;19921;-84
2022/01/24 07:22:07;;;;;;;;;;;;;;;-2.24;70.58;101877.97;5011367;28;19971;-86
2022/01/24 07:24:33;;;;;;;;;;;;;;;-2.24;71.41;101858.13;5021506;28;19967;-86
2022/01/24 07:27:00;;;;;;;;;;;;;;;-2.28;70.67;101881.59;4992073;28;19983;-86
2022/01/24 07:29:26;;;;;;;;;;;;;;;-2.20;72.87;101876.25;5001355;28;19962;-86
2022/01/24 07:31:51;;;;;;;;;;;;;;;-2.11;72.66;101889.91;5006663;28;20379;-87
2022/01/24 07:34:16;;;;;;;;;;;;;;;-2.00;72.11;101892.09;5012950;28;19917;-86
2022/01/24 07:36:42;;;;;;;;;;;;;;;-1.99;69.34;101880.09;4996618;28;19944;-87
2022/01/24 07:39:07;;;;;;;;;;;;;;;-1.94;68.97;101895.50;5013148;28;19928;-87
2022/01/24 07:41:41;;;;;;;;;;;;;;;-1.78;70.84;101896.75;5015354;28;19917;-86
2022/01/24 07:44:07;;;;;;;;;;;;;;;-1.65;71.17;101898.59;5013108;28;19943;-86
2022/01/24 07:46:34;;;;;;;;;;;;;;;-1.62;69.55;101897.19;4991858;28;20016;-86
2022/01/24 07:49:03;;;;;;;;;;;;;;;-1.67;66.84;101894.56;5010956;28;19917;-89
2022/01/24 07:51:28;;;;;;;;;;;;;;;-1.70;67.42;101895.19;4988918;28;20430;-88
2022/01/24 07:53:53;;;;;;;;;;;;;;;-1.59;68.32;101902.00;4982342;28;20016;-89
2022/01/24 07:56:19;;;;;;;;;;;;;;;-1.44;69.17;101893.44;5008909;28;20302;-89
2022/01/24 07:58:44;;;;;;;;;;;;;;;-1.32;69.17;101901.84;4991930;28;19923;-89
2022/01/24 08:01:10;;;;;;;;;;;;;;;-1.20;68.36;101899.34;4995248;28;19917;-89
2022/01/24 08:03:35;;;;;;;;;;;;;;;-1.30;64.67;101905.06;4991850;28;19924;-89
2022/01/24 08:06:01;;;;;;;;;;;;;;;-1.35;63.96;101899.75;5016143;28;19922;-88
2022/01/24 08:08:26;;;;;;;;;;;;;;;-1.41;64.53;101909.94;5008074;28;19917;-89
2022/01/24 08:10:52;;;;;;;;;;;;;;;-1.42;64.49;101897.47;5006690;28;19924;-88
2022/01/24 08:13:17;;;;;;;;;;;;;;;-1.57;63.19;101910.63;5009125;28;19960;-89
2022/01/24 08:15:43;;;;;;;;;;;;;;;-1.54;64.52;101926.38;5003539;28;20032;-88
2022/01/24 08:18:09;;;;;;;;;;;;;;;-1.62;63.26;101927.13;5007926;28;19925;-88
2022/01/24 08:20:35;;;;;;;;;;;;;;;-1.63;64.33;101936.38;5012552;28;20362;-88
2022/01/24 08:23:00;;;;;;;;;;;;;;;-1.74;62.53;101937.75;4992310;28;19936;-88
2022/01/24 08:25:26;;;;;;;;;;;;;;;-1.90;62.88;101942.72;5009648;28;19979;-88
2022/01/24 08:27:52;;;;;;;;;;;;;;;-1.97;64.17;101940.41;5010021;28;20004;-88
2022/01/24 08:30:18;;;;;;;;;;;;;;;-1.78;66.23;101937.56;4982024;28;19927;-88
2022/01/24 08:32:44;;;;;;;;;;;;;;;-1.70;66.35;101941.47;5004968;28;20406;-88
2022/01/24 08:35:09;;;;;;;;;;;;;;;-1.53;66.77;101938.84;5014127;28;20021;-88
2022/01/24 08:37:35;;;;;;;;;;;;;;;-1.41;66.43;101944.53;5014485;28;19931;-87
2022/01/24 08:40:00;;;;;;;;;;;;;;;-1.48;65.05;101941.44;5010118;28;20399;-88
2022/01/24 08:42:41;;;;;;;;;;;;;;;-1.81;63.06;101948.22;5004056;28;20408;-88
2022/01/24 08:47:35;;;;;;;;;;;;;;;-1.74;64.41;101956.78;5011840;28;19926;-87
2022/01/24 08:50:01;;;;;;;;;;;;;;;-1.72;63.85;101962.72;4983668;28;19917;-88
2022/01/24 08:52:26;;;;;;;;;;;;;;;-1.82;62.72;101960.25;5012608;28;19921;-87
2022/01/24 08:54:52;;;;;;;;;;;;;;;-1.78;64.35;101963.94;5009311;28;19940;-87
2022/01/24 08:57:21;;;;;;;;;;;;;;;-1.90;64.42;101968.00;4994409;28;19939;-85
2022/01/24 08:59:47;;;;;;;;;;;;;;;-1.77;66.16;101966.34;4991871;28;19968;-87
2022/01/24 09:02:12;;;;;;;;;;;;;;;-1.60;66.05;101971.13;4998734;28;20375;-88
2022/01/24 09:04:38;;;;;;;;;;;;;;;-1.77;65.54;101970.97;5014195;28;19955;-88
2022/01/24 09:07:05;;;;;;;;;;;;;;;-1.85;64.67;101969.78;5007477;28;20440;-87
2022/01/24 09:09:31;;;;;;;;;;;;;;;-1.83;65.27;101977.66;5017509;28;20290;-88
2022/01/24 09:11:57;;;;;;;;;;;;;;;-1.88;65.95;101971.22;4989788;28;19972;-89
2022/01/24 09:14:22;;;;;;;;;;;;;;;-1.75;66.86;101974.22;5028002;28;19957;-85
2022/01/24 09:16:48;;;;;;;;;;;;;;;-1.73;65.57;101980.13;5016571;28;19929;-87
2022/01/24 09:19:13;;;;;;;;;;;;;;;-1.86;63.57;101979.09;5012188;28;19921;-87
2022/01/24 09:21:39;;;;;;;;;;;;;;;-1.71;66.01;101980.66;5024679;28;19924;-87
2022/01/24 09:24:05;;;;;;;;;;;;;;;-1.66;65.43;101981.34;5015554;28;20398;-88
2022/01/24 09:26:30;;;;;;;;;;;;;;;-1.59;66.57;101987.16;5017317;28;19921;-88
2022/01/24 09:28:56;;;;;;;;;;;;;;;-1.60;65.88;101982.00;5001545;28;19960;-88
2022/01/24 09:31:22;;;;;;;;;;;;;;;-1.65;67.09;101985.66;5025019;28;19964;-88
2022/01/24 09:33:48;;;;;;;;;;;;;;;-1.65;64.50;101980.22;5022578;28;19917;-88
2022/01/24 09:36:14;;;;;;;;;;;;;;;-1.66;64.71;101986.78;5014243;28;20437;-88
2022/01/24 09:38:39;;;;;;;;;;;;;;;-1.66;66.11;101983.25;4998979;28;19917;-88
2022/01/24 09:41:08;;;;;;;;;;;;;;;-1.73;65.48;101991.03;5015252;28;19921;-88
2022/01/24 09:43:34;;;;;;;;;;;;;;;-1.68;65.88;101985.47;5014672;28;19964;-88
2022/01/24 09:45:59;;;;;;;;;;;;;;;-1.74;65.00;101992.16;5014774;28;19956;-88
2022/01/24 09:48:25;;;;;;;;;;;;;;;-1.91;65.30;101988.16;5014040;28;19925;-87
2022/01/24 09:50:52;;;;;;;;;;;;;;;-1.74;65.34;101992.16;5015833;28;19925;-87
2022/01/24 09:53:18;;;;;;;;;;;;;;;-1.71;64.81;101989.63;5032817;28;19917;-88
2022/01/24 09:55:43;;;;;;;;;;;;;;;-1.72;65.21;101987.19;5027217;28;20012;-87
2022/01/24 09:58:09;;;;;;;;;;;;;;;-1.63;65.35;101988.88;5013659;28;19917;-89
2022/01/24 10:00:34;;;;;;;;;;;;;;;-1.80;63.53;102004.25;5016874;28;19917;-89
2022/01/24 10:03:00;;;;;;;;;;;;;;;-1.85;64.29;101998.91;5016916;28;19917;-89
2022/01/24 10:05:25;;;;;;;;;;;;;;;-1.77;66.23;101992.75;5018694;28;20298;-89
2022/01/24 10:07:52;;;;;;;;;;;;;;;-1.70;64.29;101999.41;5013816;28;19921;-89
2022/01/24 10:10:34;;;;;;;;;;;;;;;-1.66;66.76;101983.25;5012466;28;19924;-78
2022/01/24 10:16:25;;;;;;;;;;;;;;;-1.28;69.10;101991.84;5015641;28;19928;-79
2022/01/24 10:19:09;;;;;;;;;;;;;;;-1.07;67.07;101991.06;5000888;28;20494;-79
2022/01/24 10:21:39;;;;;;;;;;;;;;;-1.21;66.11;101990.31;4996912;28;20033;-80
2022/01/24 10:24:04;;;;;;;;;;;;;;;-1.28;63.40;101995.38;5013832;28;19913;-80
2022/01/24 10:26:30;;;;;;;;;;;;;;;-1.49;64.83;102005.97;5027793;28;19926;-80
2022/01/24 10:28:55;;;;;;;;;;;;;;;-1.40;65.05;102000.59;5022059;28;19925;-79
2022/01/24 10:31:28;;;;;;;;;;;;;;;-1.35;65.61;102000.47;5014125;28;20012;-79
2022/01/24 10:34:06;;;;;;;;;;;;;;;-1.42;63.95;101986.50;5013253;28;19987;-80
2022/01/24 10:36:51;;;;;;;;;;;;;;;-1.21;67.18;101998.47;5020704;28;19918;-79
2022/01/24 10:44:58;;;;;;;;;;;;;;;-1.26;64.61;101997.81;5016893;28;19917;-79
2022/01/24 10:47:27;;;;;;;;;;;;;;;-1.23;63.58;102000.72;5015744;28;20175;-80
2022/01/24 10:49:53;;;;;;;;;;;;;;;-1.32;62.50;101997.13;5013873;28;19921;-80
2022/01/24 10:52:23;;;;;;;;;;;;;;;-1.25;63.75;101994.75;5015442;28;19917;-80
2022/01/24 10:54:50;;;;;;;;;;;;;;;-1.31;62.46;101987.84;5022173;28;19917;-80
2022/01/24 10:57:25;;;;;;;;;;;;;;;-1.19;63.84;101993.53;5012197;28;20378;-79
2022/01/24 10:59:51;;;;;;;;;;;;;;;-0.93;64.96;101998.34;5006698;28;20338;-80
2022/01/24 11:02:17;;;;;;;;;;;;;;;-0.75;64.82;101989.13;4985327;28;19921;-79
2022/01/24 11:04:42;;;;;;;;;;;;;;;-0.56;66.12;101978.78;5008982;28;20016;-79
2022/01/24 11:07:08;;;;;;;;;;;;;;;-0.65;62.01;101980.69;4992159;28;20444;-80
2022/01/24 11:09:34;;;;;;;;;;;;;;;-0.71;61.81;101984.66;4998375;28;19924;-79
2022/01/24 11:12:00;;;;;;;;;;;;;;;-0.69;62.19;101985.97;5011342;28;19971;-80
2022/01/24 11:14:26;;;;;;;;;;;;;;;-1.03;60.92;101983.06;5011565;28;19921;-80
2022/01/24 11:16:52;;;;;;;;;;;;;;;-1.07;60.74;101980.16;5009768;28;20337;-80
2022/01/24 11:22:20;;;;;;;;;;;;;;;-0.71;61.42;101962.88;4991125;28;19917;-80
2022/01/24 11:24:52;;;;;;;;;;;;;;;-0.71;60.02;101969.13;5011313;28;19928;-80
2022/01/24 11:27:18;;;;;;;;;;;;;;;-0.60;60.59;101973.16;4990844;28;19925;-80
2022/01/24 11:29:43;;;;;;;;;;;;;;;-0.48;59.70;101967.91;4988277;28;20473;-80
2022/01/24 11:32:08;;;;;;;;;;;;;;;-0.34;61.35;101958.81;4989755;28;19979;-80
2022/01/24 11:34:38;;;;;;;;;;;;;;;-0.09;60.67;101958.88;5007721;28;19936;-79
2022/01/24 11:37:04;;;;;;;;;;;;;;;-0.32;58.91;101957.38;5007630;28;19995;-79
2022/01/24 11:39:29;;;;;;;;;;;;;;;-0.27;59.45;101954.50;4990935;28;19949;-79
2022/01/24 11:41:55;;;;;;;;;;;;;;;-0.15;58.55;101956.63;5011937;28;20345;-79
2022/01/24 11:44:22;;;;;;;;;;;;;;;-0.29;57.88;101959.50;5012155;28;19925;-79
2022/01/24 11:46:55;;;;;;;;;;;;;;;0.02;59.75;101953.91;5009829;28;20394;-79
2022/01/24 11:49:27;;;;;;;;;;;;;;;-0.06;59.66;101949.25;5012233;28;19917;-80
2022/01/24 11:52:17;;;;;;;;;;;;;;;-0.11;58.81;101947.47;5016267;28;20497;-80
2022/01/24 11:54:50;;;;;;;;;;;;;;;0.06;61.82;101943.16;5007085;28;20432;-79
2022/01/24 11:57:17;;;;;;;;;;;;;;;-0.01;57.83;101947.19;4996398;28;20425;-79
2022/01/24 11:59:43;;;;;;;;;;;;;;;-0.16;58.10;101947.63;5012017;28;19952;-78
2022/01/24 12:02:09;;;;;;;;;;;;;;;-0.14;58.33;101945.41;5013089;28;20287;-78
2022/01/24 12:04:47;;;;;;;;;;;;;;;-0.16;58.45;101944.91;5012436;28;19957;-79
2022/01/24 12:07:26;;;;;;;;;;;;;;;-0.40;57.93;101943.75;5011991;28;20358;-78
2022/01/24 12:09:52;;;;;;;;;;;;;;;-0.13;59.72;101936.09;5010134;28;20452;-78
2022/01/24 12:12:43;;;;;;;;;;;;;;;0.34;61.90;101930.81;5018925;28;19971;-78
2022/01/24 12:15:09;;;;;;;;;;;;;;;0.63;57.74;101936.41;5016885;28;19918;-79
2022/01/24 12:17:48;;;;;;;;;;;;;;;0.69;55.90;101915.97;5017847;28;19948;-79
2022/01/24 12:20:31;;;;;;;;;;;;;;;0.59;57.65;101938.19;5018737;28;20298;-79
2022/01/24 12:23:21;;;;;;;;;;;;;;;0.73;59.22;101927.84;5007119;28;19921;-78
2022/01/24 12:25:52;;;;;;;;;;;;;;;0.62;54.66;101934.78;5004682;28;20355;-79
2022/01/24 12:28:19;;;;;;;;;;;;;;;0.13;55.54;101929.84;5002044;28;19925;-79
2022/01/24 12:30:58;;;;;;;;;;;;;;;0.08;55.63;101930.81;5008669;28;19928;-80
2022/01/24 12:33:30;;;;;;;;;;;;;;;0.40;55.99;101924.88;5009346;28;20337;-79
2022/01/24 12:35:55;;;;;;;;;;;;;;;0.33;57.52;101924.53;5009429;28;19925;-78
2022/01/24 12:38:21;;;;;;;;;;;;;;;0.64;58.53;101920.81;5008665;28;20025;-78
2022/01/24 12:40:47;;;;;;;;;;;;;;;0.96;57.36;101903.06;5009970;28;20456;-78
2022/01/24 12:43:28;;;;;;;;;;;;;;;1.16;53.29;101903.16;5021174;28;19917;-78
2022/01/24 12:48:37;;;;;;;;;;;;;;;1.17;52.46;101901.22;5020645;28;19921;-78
2022/01/24 12:51:03;;;;;;;;;;;;;;;1.20;51.85;101906.03;5020764;28;20363;-78
2022/01/24 12:53:28;;;;;;;;;;;;;;;0.88;51.94;101905.50;5004819;28;20299;-77
2022/01/24 12:56:01;;;;;;;;;;;;;;;0.83;53.15;101905.66;5022666;28;19928;-78
2022/01/24 12:58:33;;;;;;;;;;;;;;;0.90;53.93;101914.16;5024447;28;19917;-79
2022/01/24 13:00:58;;;;;;;;;;;;;;;1.10;54.25;101909.91;5008616;28;19925;-78
2022/01/24 13:03:23;;;;;;;;;;;;;;;0.87;53.44;101905.81;5017351;28;19921;-78
2022/01/24 13:05:49;;;;;;;;;;;;;;;1.04;53.68;101899.50;5007813;28;20272;-78
2022/01/24 13:08:15;;;;;;;;;;;;;;;1.24;53.91;101905.03;5009668;28;19921;-78
2022/01/24 13:10:44;;;;;;;;;;;;;;;1.52;52.21;101899.91;5009097;28;19925;-78
2022/01/24 13:13:13;;;;;;;;;;;;;;;1.68;52.80;101895.47;4992041;28;19917;-78
2022/01/24 13:21:10;;;;;;;;;;;;;;;1.54;52.52;101888.66;5007471;28;19928;-78
2022/01/24 13:23:39;;;;;;;;;;;;;;;1.40;52.65;101891.59;4993191;28;19917;-77
2022/01/24 13:26:05;;;;;;;;;;;;;;;1.42;53.83;101892.06;5008409;28;20039;-77
2022/01/24 13:28:30;;;;;;;;;;;;;;;1.26;52.60;101891.81;5007860;28;20414;-79
2022/01/24 13:31:03;;;;;;;;;;;;;;;1.42;53.52;101891.28;5009565;28;20155;-77
2022/01/24 13:33:30;;;;;;;;;;;;;;;1.58;54.29;101889.59;5007917;28;19918;-77
2022/01/24 13:35:56;;;;;;;;;;;;;;;1.65;53.36;101885.19;5005402;28;19924;-77
2022/01/24 13:38:25;;;;;;;;;;;;;;;1.80;55.14;101892.00;5010056;28;19921;-77
2022/01/24 13:43:28;;;;;;;;;;;;;;;1.82;52.82;101887.78;5010994;28;20384;-78
2022/01/24 13:45:54;;;;;;;;;;;;;;;2.04;55.62;101894.06;5011689;28;20397;-78
2022/01/24 13:48:20;;;;;;;;;;;;;;;2.03;51.53;101901.47;4992961;28;19917;-78
2022/01/24 13:50:53;;;;;;;;;;;;;;;2.02;51.75;101897.16;4993665;28;19928;-78
2022/01/24 13:53:47;;;;;;;;;;;;;;;1.95;53.75;101901.53;5015227;28;19961;-78
2022/01/24 13:56:22;;;;;;;;;;;;;;;2.10;53.51;101907.22;5001312;28;19956;-78
2022/01/24 13:58:57;;;;;;;;;;;;;;;2.30;52.81;101902.88;5008697;28;20437;-78
2022/01/24 14:01:23;;;;;;;;;;;;;;;2.38;52.20;101901.19;5008370;28;20437;-78
2022/01/24 14:03:58;;;;;;;;;;;;;;;2.48;53.03;101889.81;5010526;28;20009;-78
2022/01/24 14:06:23;;;;;;;;;;;;;;;2.59;53.27;101900.00;5007407;28;20397;-78
2022/01/24 14:09:00;;;;;;;;;;;;;;;2.64;53.31;101893.50;5006771;28;19917;-78
2022/01/24 14:11:25;;;;;;;;;;;;;;;2.50;52.15;101895.75;5011917;28;19921;-78
2022/01/24 14:14:05;;;;;;;;;;;;;;;2.09;50.99;101896.59;5001266;28;20363;-77
2022/01/24 14:19:29;;;;;;;;;;;;;;;1.52;52.43;101899.09;4999812;28;20041;-77
2022/01/24 14:22:20;;;;;;;;;;;;;;;1.40;53.85;101900.63;5011284;28;19921;-77
2022/01/24 14:24:46;;;;;;;;;;;;;;;1.20;53.43;101903.28;5010814;28;19979;-77
2022/01/24 14:27:12;;;;;;;;;;;;;;;0.97;53.99;101910.13;5015119;28;20367;-77
2022/01/24 14:29:38;;;;;;;;;;;;;;;0.80;54.05;101909.06;4994256;28;19917;-77
2022/01/24 14:32:10;;;;;;;;;;;;;;;0.67;54.88;101907.31;5016628;28;19944;-77
2022/01/24 14:34:35;;;;;;;;;;;;;;;0.58;56.21;101912.00;5012247;28;19921;-77
2022/01/24 14:37:05;;;;;;;;;;;;;;;0.48;57.48;101901.41;5011880;28;19925;-77
2022/01/24 14:39:30;;;;;;;;;;;;;;;0.27;55.36;101925.03;5011458;28;19925;-77